Time;durP1;ratioP1;P1;durP2;ratioP2;P2;SDS_P1;SDS_P2;PMS_P1;PMS_P2;Temp;Humidity;BMP_temperature;BMP_pressure;BME280_temperature;BME280_humidity;BME280_pressure;Samples;Min_cycle;Max_cycle;Signal;HPM_P1;HPM_P2
2023/03/13 00:00:35;;;;;;;37.08;6.70;;;;;;;;;;5114850;28;20558;-73
2023/03/13 00:03:01;;;;;;;41.80;6.60;;;;;;;;;;5115696;28;20118;-74
2023/03/13 00:05:27;;;;;;;35.75;5.78;;;;;;;;;;5114633;28;20050;-74
2023/03/13 00:07:53;;;;;;;40.92;7.22;;;;;;;;;;5114937;28;20040;-74
2023/03/13 00:10:19;;;;;;;43.38;7.78;;;;;;;;;;5115131;28;20028;-74
2023/03/13 00:12:45;;;;;;;40.45;6.72;;;;;;;;;;5114756;28;20043;-74
2023/03/13 00:15:11;;;;;;;32.70;5.65;;;;;;;;;;5097874;28;20432;-74
2023/03/13 00:17:37;;;;;;;49.35;6.97;;;;;;;;;;5114711;28;20460;-74
2023/03/13 00:20:04;;;;;;;50.40;7.03;;;;;;;;;;5114723;28;20028;-74
2023/03/13 00:22:30;;;;;;;46.80;7.20;;;;;;;;;;5097908;28;20036;-74
2023/03/13 00:24:57;;;;;;;46.17;6.63;;;;;;;;;;5114506;28;20036;-74
2023/03/13 00:27:23;;;;;;;39.63;6.43;;;;;;;;;;5114567;28;20088;-74
2023/03/13 00:29:49;;;;;;;45.85;6.47;;;;;;;;;;5115678;28;20050;-74
2023/03/13 00:32:15;;;;;;;39.80;7.10;;;;;;;;;;5114520;28;20105;-74
2023/03/13 00:34:41;;;;;;;43.30;7.28;;;;;;;;;;5114559;28;20055;-75
2023/03/13 00:37:07;;;;;;;40.30;6.97;;;;;;;;;;5114526;28;20063;-74
2023/03/13 00:39:34;;;;;;;51.90;6.60;;;;;;;;;;5097595;28;20043;-74
2023/03/13 00:42:02;;;;;;;43.47;6.95;;;;;;;;;;5114991;28;20449;-74
2023/03/13 00:44:29;;;;;;;42.58;8.30;;;;;;;;;;5115280;28;20043;-74
2023/03/13 00:46:55;;;;;;;55.53;8.45;;;;;;;;;;5115651;28;20044;-74
2023/03/13 00:49:21;;;;;;;44.83;8.18;;;;;;;;;;5098276;28;20044;-74
2023/03/13 00:51:47;;;;;;;46.60;7.72;;;;;;;;;;5114149;28;20173;-74
2023/03/13 00:54:13;;;;;;;51.13;8.38;;;;;;;;;;5113934;28;20047;-74
2023/03/13 00:56:39;;;;;;;44.75;7.95;;;;;;;;;;5114401;28;20047;-74
2023/03/13 00:59:05;;;;;;;45.33;7.30;;;;;;;;;;5113978;28;20042;-74
2023/03/13 01:01:32;;;;;;;37.97;7.28;;;;;;;;;;5113684;28;20039;-74
2023/03/13 01:04:00;;;;;;;39.10;7.78;;;;;;;;;;5113999;28;20078;-74
2023/03/13 01:06:27;;;;;;;36.60;6.53;;;;;;;;;;5111366;28;20086;-74
2023/03/13 01:08:53;;;;;;;32.45;7.13;;;;;;;;;;5112891;28;20035;-74
2023/03/13 01:11:21;;;;;;;46.70;8.15;;;;;;;;;;5113417;28;20047;-74
2023/03/13 01:13:47;;;;;;;49.70;7.57;;;;;;;;;;5113496;28;20032;-74
2023/03/13 01:16:15;;;;;;;37.50;8.50;;;;;;;;;;5113627;28;20069;-74
2023/03/13 01:18:43;;;;;;;47.00;7.18;;;;;;;;;;5094371;28;20035;-74
2023/03/13 01:21:09;;;;;;;45.25;7.32;;;;;;;;;;5113767;28;20035;-74
2023/03/13 01:23:36;;;;;;;41.58;6.05;;;;;;;;;;5113243;28;20418;-74
2023/03/13 01:26:03;;;;;;;52.97;8.35;;;;;;;;;;5113356;28;20039;-74
2023/03/13 01:28:30;;;;;;;47.10;7.47;;;;;;;;;;5113273;28;20050;-74
2023/03/13 01:30:56;;;;;;;41.72;6.38;;;;;;;;;;5113296;28;20036;-74
2023/03/13 01:33:22;;;;;;;54.40;7.35;;;;;;;;;;5096521;28;20035;-73
2023/03/13 01:35:48;;;;;;;33.70;6.82;;;;;;;;;;5113388;28;20039;-74
2023/03/13 01:38:14;;;;;;;48.22;7.20;;;;;;;;;;5096208;28;20073;-74
2023/03/13 01:40:48;;;;;;;40.05;7.10;;;;;;;;;;5113096;28;20031;-74
2023/03/13 01:43:24;;;;;;;41.50;7.20;;;;;;;;;;5111181;28;20122;-73
2023/03/13 01:45:50;;;;;;;42.05;6.75;;;;;;;;;;5113094;28;20035;-73
2023/03/13 01:48:16;;;;;;;41.72;7.05;;;;;;;;;;5112794;28;20031;-73
2023/03/13 01:50:43;;;;;;;36.75;6.85;;;;;;;;;;5112732;28;20042;-73
2023/03/13 01:53:09;;;;;;;32.85;7.18;;;;;;;;;;5105410;28;20048;-73
2023/03/13 01:55:35;;;;;;;38.03;7.40;;;;;;;;;;5092442;28;20036;-72
2023/03/13 01:58:01;;;;;;;33.35;7.55;;;;;;;;;;5092460;28;20471;-72
2023/03/13 02:00:30;;;;;;;39.35;8.45;;;;;;;;;;5092597;28;20107;-72
2023/03/13 02:02:58;;;;;;;26.48;6.57;;;;;;;;;;5092507;28;20051;-72
2023/03/13 02:05:25;;;;;;;34.67;7.15;;;;;;;;;;5092061;28;20067;-72
2023/03/13 02:08:00;;;;;;;36.97;9.35;;;;;;;;;;5092379;28;20035;-72
2023/03/13 02:10:28;;;;;;;29.10;7.55;;;;;;;;;;5074226;28;20356;-72
2023/03/13 02:12:54;;;;;;;36.80;6.93;;;;;;;;;;5091998;28;20074;-72
2023/03/13 02:15:22;;;;;;;29.52;7.60;;;;;;;;;;5074754;28;20036;-72
2023/03/13 02:17:49;;;;;;;34.83;7.80;;;;;;;;;;5091921;28;20492;-72
2023/03/13 02:20:17;;;;;;;37.60;9.93;;;;;;;;;;5088991;28;20036;-72
2023/03/13 02:23:02;;;;;;;33.53;8.80;;;;;;;;;;5091879;28;20127;-72
2023/03/13 02:25:34;;;;;;;30.42;8.10;;;;;;;;;;5091671;28;20032;-72
2023/03/13 02:28:02;;;;;;;19.30;7.82;;;;;;;;;;5092128;28;20055;-72
2023/03/13 02:30:28;;;;;;;26.73;8.05;;;;;;;;;;5089195;28;20555;-72
2023/03/13 02:32:55;;;;;;;28.10;8.30;;;;;;;;;;5091831;28;20119;-73
2023/03/13 02:35:22;;;;;;;28.23;8.13;;;;;;;;;;5074740;28;20032;-72
2023/03/13 02:37:50;;;;;;;23.77;7.90;;;;;;;;;;5091803;28;20039;-72
2023/03/13 02:40:20;;;;;;;26.80;7.40;;;;;;;;;;5091610;28;20031;-72
2023/03/13 02:42:48;;;;;;;25.25;8.02;;;;;;;;;;5090023;28;20047;-72
2023/03/13 02:45:15;;;;;;;23.23;6.80;;;;;;;;;;5091472;28;20040;-72
2023/03/13 02:47:41;;;;;;;23.17;8.25;;;;;;;;;;5091401;28;20036;-72
2023/03/13 02:50:08;;;;;;;23.55;7.30;;;;;;;;;;5074443;28;20056;-72
2023/03/13 02:52:40;;;;;;;22.83;8.05;;;;;;;;;;5094685;27;20184;-72
2023/03/13 02:55:10;;;;;;;19.67;6.75;;;;;;;;;;5114953;27;20039;-72
2023/03/13 02:57:36;;;;;;;20.25;7.60;;;;;;;;;;5101509;27;20046;-72
2023/03/13 03:00:05;;;;;;;22.92;6.68;;;;;;;;;;5114900;27;20035;-72
2023/03/13 03:02:31;;;;;;;22.77;7.97;;;;;;;;;;5115052;27;20042;-72
2023/03/13 03:04:57;;;;;;;15.02;6.20;;;;;;;;;;5115152;28;20062;-72
2023/03/13 03:07:23;;;;;;;16.15;6.65;;;;;;;;;;5114448;27;20039;-73
2023/03/13 03:09:49;;;;;;;14.93;6.63;;;;;;;;;;5114772;28;20050;-72
2023/03/13 03:12:16;;;;;;;18.45;6.68;;;;;;;;;;5114912;27;20039;-73
2023/03/13 03:14:42;;;;;;;15.43;6.63;;;;;;;;;;5114854;27;20047;-72
2023/03/13 03:17:08;;;;;;;14.52;6.57;;;;;;;;;;5115014;28;20040;-72
2023/03/13 03:19:34;;;;;;;13.25;6.78;;;;;;;;;;5115012;27;20502;-72
2023/03/13 03:22:00;;;;;;;11.10;6.25;;;;;;;;;;5114674;28;20066;-72
2023/03/13 03:24:26;;;;;;;12.73;6.35;;;;;;;;;;5114754;28;20039;-72
2023/03/13 03:26:52;;;;;;;17.90;6.10;;;;;;;;;;5115005;28;20039;-72
2023/03/13 03:29:18;;;;;;;17.05;6.32;;;;;;;;;;5114952;28;20066;-71
2023/03/13 03:31:44;;;;;;;11.60;5.95;;;;;;;;;;5117084;27;20070;-72
2023/03/13 03:34:10;;;;;;;12.05;6.00;;;;;;;;;;5135367;27;20035;-72
2023/03/13 03:36:36;;;;;;;13.55;5.60;;;;;;;;;;5118991;27;20114;-72
2023/03/13 03:39:04;;;;;;;9.90;5.80;;;;;;;;;;5118824;27;20478;-72
2023/03/13 03:41:30;;;;;;;10.73;5.63;;;;;;;;;;5118955;27;20047;-72
2023/03/13 03:43:56;;;;;;;12.80;5.97;;;;;;;;;;5118842;27;20046;-72
2023/03/13 03:46:23;;;;;;;12.25;6.88;;;;;;;;;;5118336;27;20397;-72
2023/03/13 03:48:49;;;;;;;13.10;6.75;;;;;;;;;;5118714;27;20051;-72
2023/03/13 03:51:15;;;;;;;13.32;6.05;;;;;;;;;;5118743;27;20039;-72
2023/03/13 03:53:41;;;;;;;14.73;6.43;;;;;;;;;;5118589;27;20413;-72
2023/03/13 03:56:08;;;;;;;13.07;6.70;;;;;;;;;;5118635;27;20039;-71
2023/03/13 03:58:34;;;;;;;14.00;8.02;;;;;;;;;;5118613;27;20063;-72
2023/03/13 04:01:00;;;;;;;16.85;8.77;;;;;;;;;;5118843;27;20110;-72
2023/03/13 04:03:26;;;;;;;20.58;9.25;;;;;;;;;;5118518;27;20035;-72
2023/03/13 04:05:52;;;;;;;20.55;11.40;;;;;;;;;;5101354;27;20035;-73
2023/03/13 04:08:19;;;;;;;27.85;13.23;;;;;;;;;;5118236;27;20494;-72
2023/03/13 04:10:45;;;;;;;29.27;12.63;;;;;;;;;;5136859;27;20039;-72
2023/03/13 04:13:11;;;;;;;31.95;13.80;;;;;;;;;;5118633;27;20047;-73
2023/03/13 04:15:40;;;;;;;35.33;14.27;;;;;;;;;;5118077;27;20038;-72
2023/03/13 04:18:06;;;;;;;47.75;16.42;;;;;;;;;;5118242;27;20035;-72
2023/03/13 04:20:32;;;;;;;36.55;14.45;;;;;;;;;;5101181;27;20039;-72
2023/03/13 04:22:58;;;;;;;41.92;15.65;;;;;;;;;;5101003;27;20046;-73
2023/03/13 04:25:24;;;;;;;34.95;14.20;;;;;;;;;;5118045;27;20391;-73
2023/03/13 04:27:51;;;;;;;46.13;13.45;;;;;;;;;;5118302;27;20462;-73
2023/03/13 04:30:17;;;;;;;46.30;13.45;;;;;;;;;;5100762;27;20039;-73
2023/03/13 04:32:43;;;;;;;40.53;11.75;;;;;;;;;;5100699;27;20050;-73
2023/03/13 04:35:09;;;;;;;39.70;11.63;;;;;;;;;;5117986;27;20074;-72
2023/03/13 04:37:35;;;;;;;38.58;11.13;;;;;;;;;;5117835;27;20037;-72
2023/03/13 04:40:02;;;;;;;32.95;9.40;;;;;;;;;;5117861;27;20360;-72
2023/03/13 04:42:28;;;;;;;39.10;10.50;;;;;;;;;;5117541;27;20084;-73
2023/03/13 04:44:54;;;;;;;39.08;11.35;;;;;;;;;;5117573;27;20514;-72
2023/03/13 04:47:20;;;;;;;44.05;9.40;;;;;;;;;;5100805;27;20118;-72
2023/03/13 04:49:46;;;;;;;28.75;8.77;;;;;;;;;;5137923;27;20075;-73
2023/03/13 04:52:12;;;;;;;50.33;9.98;;;;;;;;;;5117384;27;20039;-73
2023/03/13 04:54:38;;;;;;;39.17;10.15;;;;;;;;;;5094027;28;20392;-73
2023/03/13 04:57:04;;;;;;;41.55;9.77;;;;;;;;;;5076868;28;20074;-73
2023/03/13 04:59:31;;;;;;;38.42;10.93;;;;;;;;;;5093630;28;20047;-72
2023/03/13 05:01:57;;;;;;;42.03;9.65;;;;;;;;;;5093491;28;20515;-72
2023/03/13 05:04:23;;;;;;;41.80;8.90;;;;;;;;;;5093430;28;20036;-73
2023/03/13 05:06:49;;;;;;;31.13;9.43;;;;;;;;;;5093288;28;20392;-73
2023/03/13 05:09:15;;;;;;;42.70;10.07;;;;;;;;;;5093371;28;20036;-73
2023/03/13 05:11:41;;;;;;;42.42;10.27;;;;;;;;;;5093344;28;20039;-73
2023/03/13 05:14:09;;;;;;;35.05;8.00;;;;;;;;;;5093466;28;20032;-73
2023/03/13 05:16:36;;;;;;;32.83;8.60;;;;;;;;;;5093449;28;20391;-73
2023/03/13 05:19:02;;;;;;;31.75;8.43;;;;;;;;;;5093109;28;20075;-73
2023/03/13 05:21:28;;;;;;;29.77;7.38;;;;;;;;;;5076389;28;20036;-73
2023/03/13 05:23:54;;;;;;;29.83;7.32;;;;;;;;;;5093232;28;20036;-73
2023/03/13 05:26:20;;;;;;;36.28;7.57;;;;;;;;;;5093246;28;20048;-74
2023/03/13 05:28:46;;;;;;;33.35;7.35;;;;;;;;;;5076348;28;20047;-73
2023/03/13 05:31:12;;;;;;;28.05;7.53;;;;;;;;;;5092753;28;20042;-73
2023/03/13 05:33:38;;;;;;;38.38;9.25;;;;;;;;;;5092943;28;20422;-73
2023/03/13 05:36:04;;;;;;;36.78;9.00;;;;;;;;;;5093084;28;20028;-74
2023/03/13 05:38:30;;;;;;;29.48;8.02;;;;;;;;;;5092556;28;20036;-73
2023/03/13 05:40:56;;;;;;;35.22;7.93;;;;;;;;;;5093954;28;20071;-73
2023/03/13 05:43:22;;;;;;;32.38;8.10;;;;;;;;;;5093243;28;20117;-74
2023/03/13 05:45:48;;;;;;;34.13;8.40;;;;;;;;;;5076144;28;20040;-71
2023/03/13 05:48:14;;;;;;;45.22;9.25;;;;;;;;;;5089967;28;20024;-74
2023/03/13 05:50:40;;;;;;;34.60;8.80;;;;;;;;;;5092806;28;20365;-74
2023/03/13 05:53:06;;;;;;;39.05;9.38;;;;;;;;;;5091957;28;20055;-74
2023/03/13 05:55:33;;;;;;;44.33;9.88;;;;;;;;;;5092388;28;20046;-74
2023/03/13 05:57:59;;;;;;;46.65;8.98;;;;;;;;;;5092256;28;20086;-72
2023/03/13 06:00:25;;;;;;;36.25;8.25;;;;;;;;;;5075485;28;20051;-72
2023/03/13 06:02:51;;;;;;;40.67;9.60;;;;;;;;;;5092205;28;20085;-72
2023/03/13 06:05:17;;;;;;;36.78;9.07;;;;;;;;;;5075420;28;20042;-72
2023/03/13 06:07:43;;;;;;;40.88;8.98;;;;;;;;;;5092451;28;20040;-72
2023/03/13 06:10:10;;;;;;;36.80;7.95;;;;;;;;;;5075512;28;20036;-72
2023/03/13 06:12:36;;;;;;;39.60;8.93;;;;;;;;;;5091769;28;20044;-73
2023/03/13 06:15:02;;;;;;;37.78;8.13;;;;;;;;;;5095143;28;20151;-73
2023/03/13 06:17:28;;;;;;;61.13;11.57;;;;;;;;;;5075446;28;20024;-72
2023/03/13 06:19:54;;;;;;;47.38;8.00;;;;;;;;;;5093448;28;20039;-72
2023/03/13 06:22:20;;;;;;;32.53;7.38;;;;;;;;;;5093254;28;20087;-72
2023/03/13 06:24:48;;;;;;;38.03;6.78;;;;;;;;;;5093224;28;20040;-71
2023/03/13 06:27:14;;;;;;;30.80;7.45;;;;;;;;;;5056194;28;20050;-72
2023/03/13 06:29:40;;;;;;;38.60;7.07;;;;;;;;;;5072751;28;20120;-72
2023/03/13 06:32:06;;;;;;;28.40;6.95;;;;;;;;;;5055848;28;20045;-72
2023/03/13 06:34:32;;;;;;;31.58;6.53;;;;;;;;;;5072607;28;20040;-72
2023/03/13 06:36:59;;;;;;;35.45;6.72;;;;;;;;;;5075500;28;20094;-72
2023/03/13 06:39:25;;;;;;;28.67;6.72;;;;;;;;;;5092902;28;20223;-73
2023/03/13 06:41:51;;;;;;;32.33;6.82;;;;;;;;;;5059399;28;20040;-73
2023/03/13 06:44:17;;;;;;;30.75;7.35;;;;;;;;;;5092221;28;20089;-73
2023/03/13 06:46:43;;;;;;;28.67;5.80;;;;;;;;;;5092037;28;20047;-74
2023/03/13 06:49:09;;;;;;;29.80;6.45;;;;;;;;;;5074558;28;20481;-73
2023/03/13 06:51:35;;;;;;;39.25;7.28;;;;;;;;;;5092057;28;20365;-73
2023/03/13 06:54:02;;;;;;;34.75;6.50;;;;;;;;;;5093637;28;20051;-73
2023/03/13 06:56:28;;;;;;;26.73;6.40;;;;;;;;;;5091922;28;20044;-73
2023/03/13 06:58:55;;;;;;;28.50;7.05;;;;;;;;;;5074499;28;20032;-73
2023/03/13 07:01:21;;;;;;;37.03;6.72;;;;;;;;;;5091587;28;20480;-73
2023/03/13 07:03:47;;;;;;;30.95;6.70;;;;;;;;;;5092088;28;20039;-73
2023/03/13 07:06:14;;;;;;;32.20;8.10;;;;;;;;;;5093321;28;20035;-73
2023/03/13 07:08:40;;;;;;;34.35;7.40;;;;;;;;;;5092670;28;20043;-73
2023/03/13 07:11:08;;;;;;;30.88;6.38;;;;;;;;;;5091096;28;20075;-73
2023/03/13 07:13:34;;;;;;;33.33;6.38;;;;;;;;;;5091141;28;20032;-74
2023/03/13 07:16:03;;;;;;;29.58;7.47;;;;;;;;;;5091170;28;20085;-74
2023/03/13 07:18:29;;;;;;;35.35;8.40;;;;;;;;;;5091048;28;20503;-73
2023/03/13 07:20:56;;;;;;;33.22;6.63;;;;;;;;;;5091079;28;20036;-74
2023/03/13 07:23:22;;;;;;;36.25;7.03;;;;;;;;;;5091689;28;20051;-74
2023/03/13 07:25:55;;;;;;;25.92;7.05;;;;;;;;;;5076080;28;20446;-73
2023/03/13 07:28:22;;;;;;;30.77;7.55;;;;;;;;;;5091952;28;20172;-73
2023/03/13 07:30:48;;;;;;;23.70;5.65;;;;;;;;;;5109463;28;20036;-73
2023/03/13 07:33:15;;;;;;;33.28;6.43;;;;;;;;;;5109067;28;20040;-73
2023/03/13 07:35:41;;;;;;;34.42;6.80;;;;;;;;;;5109354;28;20487;-73
2023/03/13 07:38:07;;;;;;;36.65;6.35;;;;;;;;;;5108988;28;20032;-73
2023/03/13 07:40:33;;;;;;;31.75;7.30;;;;;;;;;;5091329;28;20047;-73
2023/03/13 07:42:59;;;;;;;35.42;7.22;;;;;;;;;;5091639;28;20127;-73
2023/03/13 07:45:25;;;;;;;39.20;6.65;;;;;;;;;;5087387;28;20089;-74
2023/03/13 07:47:51;;;;;;;27.27;6.38;;;;;;;;;;5090238;28;20048;-73
2023/03/13 07:50:18;;;;;;;29.83;6.78;;;;;;;;;;5091192;28;20043;-73
2023/03/13 07:52:44;;;;;;;28.40;6.03;;;;;;;;;;5094911;28;20083;-73
2023/03/13 07:55:10;;;;;;;33.58;6.55;;;;;;;;;;5115596;27;20477;-74
2023/03/13 07:57:36;;;;;;;34.65;5.40;;;;;;;;;;5115577;27;20031;-73
2023/03/13 08:00:02;;;;;;;30.65;6.78;;;;;;;;;;5133785;28;20084;-73
2023/03/13 08:02:28;;;;;;;23.02;5.72;;;;;;;;;;5137099;27;20099;-73
2023/03/13 08:04:54;;;;;;;29.40;5.75;;;;;;;;;;5115088;28;20494;-73
2023/03/13 08:07:20;;;;;;;28.02;6.30;;;;;;;;;;5115336;28;20083;-73
2023/03/13 08:09:47;;;;;;;25.60;5.57;;;;;;;;;;5114887;28;20046;-73
2023/03/13 08:12:13;;;;;;;25.65;5.43;;;;;;;;;;5114589;28;20087;-73
2023/03/13 08:14:39;;;;;;;30.10;5.20;;;;;;;;;;5115639;28;20399;-73
2023/03/13 08:17:05;;;;;;;22.08;5.13;;;;;;;;;;5134802;27;20035;-73
2023/03/13 08:19:31;;;;;;;26.83;6.45;;;;;;;;;;5118761;27;20095;-74
2023/03/13 08:21:57;;;;;;;29.23;5.10;;;;;;;;;;5118046;27;20118;-73
2023/03/13 08:24:23;;;;;;;31.63;6.90;;;;;;;;;;5118953;27;20066;-74
2023/03/13 08:26:49;;;;;;;29.02;5.97;;;;;;;;;;5117778;27;20108;-74
2023/03/13 08:29:15;;;;;;;22.08;5.93;;;;;;;;;;5123987;27;20039;-73
2023/03/13 08:31:43;;;;;;;21.75;5.70;;;;;;;;;;5117177;27;20544;-74
2023/03/13 08:34:10;;;;;;;32.53;6.30;;;;;;;;;;5099817;27;20047;-72
2023/03/13 08:36:37;;;;;;;27.17;5.90;;;;;;;;;;5116635;27;20035;-73
2023/03/13 08:39:04;;;;;;;22.73;5.00;;;;;;;;;;5117283;27;20478;-73
2023/03/13 08:41:34;;;;;;;20.55;4.60;;;;;;;;;;5117558;27;20042;-73
2023/03/13 08:44:01;;;;;;;27.85;4.88;;;;;;;;;;5117670;27;20110;-73
2023/03/13 08:46:28;;;;;;;19.52;5.13;;;;;;;;;;5117849;27;20035;-73
2023/03/13 08:48:54;;;;;;;31.35;5.68;;;;;;;;;;5116867;27;20047;-74
2023/03/13 08:51:22;;;;;;;22.65;4.45;;;;;;;;;;5100186;27;20161;-73
2023/03/13 08:53:49;;;;;;;26.67;5.07;;;;;;;;;;5114346;27;20043;-74
2023/03/13 08:56:16;;;;;;;25.88;5.00;;;;;;;;;;5115631;27;20031;-73
2023/03/13 08:58:42;;;;;;;24.20;5.63;;;;;;;;;;5118437;27;20075;-74
2023/03/13 09:01:09;;;;;;;23.08;5.10;;;;;;;;;;5117360;27;20032;-73
2023/03/13 09:03:36;;;;;;;21.48;4.45;;;;;;;;;;5117381;27;20387;-73
2023/03/13 09:06:02;;;;;;;26.58;4.88;;;;;;;;;;5117542;27;20039;-74
2023/03/13 09:08:29;;;;;;;30.38;5.00;;;;;;;;;;5116869;27;20122;-74
2023/03/13 09:10:56;;;;;;;16.80;4.82;;;;;;;;;;5115561;27;20077;-74
2023/03/13 09:13:23;;;;;;;24.65;4.32;;;;;;;;;;5125776;27;20031;-73
2023/03/13 09:16:03;;;;;;;21.65;5.00;;;;;;;;;;5115311;27;20135;-74
2023/03/13 09:18:29;;;;;;;30.20;6.43;;;;;;;;;;5119258;27;20146;-74
2023/03/13 09:20:55;;;;;;;32.83;4.75;;;;;;;;;;5117841;27;20363;-74
2023/03/13 09:23:22;;;;;;;31.17;5.03;;;;;;;;;;5118073;27;20088;-74
2023/03/13 09:25:48;;;;;;;31.05;6.65;;;;;;;;;;5116370;27;20547;-73
2023/03/13 09:28:15;;;;;;;26.23;6.32;;;;;;;;;;5117026;28;20031;-73
2023/03/13 09:30:41;;;;;;;28.40;5.13;;;;;;;;;;5119553;27;20034;-74
2023/03/13 09:33:07;;;;;;;27.70;5.13;;;;;;;;;;5102001;27;20047;-73
2023/03/13 09:35:33;;;;;;;32.30;6.22;;;;;;;;;;5117899;27;20053;-73
2023/03/13 09:37:59;;;;;;;31.20;5.60;;;;;;;;;;5118053;27;20070;-74
2023/03/13 09:40:26;;;;;;;32.08;5.60;;;;;;;;;;5116587;27;20031;-74
2023/03/13 09:42:54;;;;;;;26.77;5.43;;;;;;;;;;5114903;27;20046;-74
2023/03/13 09:45:38;;;;;;;30.10;5.38;;;;;;;;;;5116006;27;20130;-73
2023/03/13 09:48:06;;;;;;;34.03;5.05;;;;;;;;;;5111935;27;20088;-74
2023/03/13 09:50:34;;;;;;;25.98;4.68;;;;;;;;;;5116558;27;20074;-74
2023/03/13 09:53:05;;;;;;;27.45;5.05;;;;;;;;;;5115724;27;20047;-74
2023/03/13 09:55:34;;;;;;;25.10;5.43;;;;;;;;;;5116163;27;20046;-73
2023/03/13 09:58:12;;;;;;;24.90;4.53;;;;;;;;;;5098899;27;20038;-74
2023/03/13 10:00:40;;;;;;;30.33;6.45;;;;;;;;;;5096712;27;20122;-73
2023/03/13 10:03:06;;;;;;;32.53;4.47;;;;;;;;;;5137070;27;20092;-74
2023/03/13 10:05:32;;;;;;;28.95;4.55;;;;;;;;;;5115477;27;20039;-74
2023/03/13 10:08:09;;;;;;;32.85;6.68;;;;;;;;;;5114850;27;20566;-74
2023/03/13 10:10:38;;;;;;;28.55;5.28;;;;;;;;;;5113497;27;20046;-74
2023/03/13 10:13:12;;;;;;;27.15;4.68;;;;;;;;;;5129575;27;20051;-73
2023/03/13 10:15:50;;;;;;;25.13;4.47;;;;;;;;;;5113014;27;20069;-74
2023/03/13 10:18:20;;;;;;;32.35;6.45;;;;;;;;;;5113563;27;20035;-74
2023/03/13 10:20:47;;;;;;;37.47;6.70;;;;;;;;;;5113837;27;20038;-73
2023/03/13 10:23:19;;;;;;;29.30;4.85;;;;;;;;;;5112692;27;20240;-74
2023/03/13 10:25:45;;;;;;;33.10;4.75;;;;;;;;;;5112810;27;20043;-74
2023/03/13 10:28:13;;;;;;;31.38;4.88;;;;;;;;;;5114672;27;20071;-75
2023/03/13 10:30:43;;;;;;;35.03;5.32;;;;;;;;;;5110885;27;20043;-73
2023/03/13 10:33:12;;;;;;;34.40;6.78;;;;;;;;;;5116367;27;20046;-74
2023/03/13 10:35:40;;;;;;;31.73;5.38;;;;;;;;;;5115108;27;20600;-74
2023/03/13 10:38:10;;;;;;;46.38;6.32;;;;;;;;;;5114669;27;20031;-74
2023/03/13 10:40:37;;;;;;;32.53;5.07;;;;;;;;;;5114520;27;20166;-73
2023/03/13 10:43:12;;;;;;;34.40;5.40;;;;;;;;;;5115678;27;20085;-74
2023/03/13 10:45:38;;;;;;;29.20;4.72;;;;;;;;;;5113952;27;20394;-74
2023/03/13 10:48:25;;;;;;;32.50;4.43;;;;;;;;;;5114847;27;20041;-74
2023/03/13 10:50:53;;;;;;;36.13;4.68;;;;;;;;;;5131504;27;20055;-74
2023/03/13 10:53:25;;;;;;;34.90;6.15;;;;;;;;;;5097173;27;20079;-74
2023/03/13 10:56:00;;;;;;;39.72;5.15;;;;;;;;;;5093723;28;20077;-75
2023/03/13 10:58:40;;;;;;;39.55;4.82;;;;;;;;;;5104080;27;20095;-74
2023/03/13 11:01:23;;;;;;;34.58;5.80;;;;;;;;;;5113392;27;20031;-74
2023/03/13 11:03:49;;;;;;;;;;;;;;;;;;5114339;27;20043;-75
2023/03/13 11:06:24;;;;;;;26.55;5.88;;;;;;;;;;5109990;27;20216;-74
2023/03/13 11:08:57;;;;;;;39.33;4.95;;;;;;;;;;5099472;27;20482;-74
2023/03/13 11:11:29;;;;;;;28.13;4.20;;;;;;;;;;5108644;27;20502;-74
2023/03/13 11:13:55;;;;;;;34.85;5.40;;;;;;;;;;5104625;27;20390;-73
2023/03/13 11:16:23;;;;;;;27.83;4.22;;;;;;;;;;5106971;28;20046;-74
2023/03/13 11:19:19;;;;;;;30.83;5.20;;;13.80;99.90;;;;;;5103246;27;20035;-74
2023/03/13 11:22:07;;;;;;;26.65;4.47;;;;;;;;;;5113343;27;20035;-75
2023/03/13 11:24:36;;;;;;;23.90;4.30;;;;;;;;;;5114664;27;20035;-74
2023/03/13 11:27:21;;;;;;;32.25;5.57;;;;;;;;;;5102152;28;20050;-74
2023/03/13 11:29:53;;;;;;;23.42;4.40;;;;;;;;;;5093203;28;20039;-75
2023/03/13 11:32:51;;;;;;;24.55;6.30;;;;;;;;;;5108068;28;20051;-74
2023/03/13 11:35:38;;;;;;;24.88;4.35;;;;;;;;;;5068628;28;20035;-74
2023/03/13 11:38:08;;;;;;;27.13;4.28;;;;;;;;;;5112372;27;20031;-74
2023/03/13 11:40:45;;;;;;;26.50;5.28;;;;;;;;;;5108458;28;20035;-74
2023/03/13 11:43:14;;;;;;;28.38;4.22;;;;;;;;;;5126679;28;20084;-74
2023/03/13 11:45:46;;;;;;;36.80;5.78;;;;;;;;;;5115646;27;20046;-74
2023/03/13 11:48:12;;;;;;;31.40;5.68;;;;;;;;;;5115403;28;20035;-74
2023/03/13 11:50:57;;;;;;;26.38;5.18;;;;;;;;;;5113578;27;20050;-74
2023/03/13 11:53:29;;;;;;;37.80;5.53;;;;;;;;;;5103075;28;20052;-73
2023/03/13 11:56:01;;;;;;;29.83;4.40;;;;;;;;;;5099975;27;20043;-74
2023/03/13 11:58:27;;;;;;;27.48;3.72;;;;;;;;;;5117006;27;20042;-74
2023/03/13 12:01:02;;;;;;;39.08;4.65;;;;;;;;;;5122015;27;20042;-74
2023/03/13 12:03:47;;;;;;;25.98;4.28;;;;;;;;;;5098214;27;20039;-73
2023/03/13 12:06:25;;;;;;;30.08;4.43;;;;;;;;;;5118618;27;20039;-74
2023/03/13 12:08:55;;;;;;;33.10;4.55;;;;;;;;;;5117870;27;20035;-74
2023/03/13 12:11:29;;;;;;;30.58;4.50;;;;;;;;;;5101130;27;20070;-74
2023/03/13 12:14:06;;;;;;;30.55;4.78;;;;;;;;;;5124462;27;20037;-75
2023/03/13 12:16:47;;;;;;;37.78;4.97;;;;;;;;;;5117294;27;20110;-74
2023/03/13 12:19:32;;;;;;;35.08;4.63;;;;;;;;;;5115152;27;20474;-74
2023/03/13 12:22:02;;;;;;;28.50;4.85;;;;;;;;;;5115405;27;20111;-74
2023/03/13 12:24:38;;;;;;;27.17;5.20;;;;;;;;;;5117924;27;20039;-74
2023/03/13 12:27:04;;;;;;;29.38;4.07;;;;;;;;;;5117705;27;20394;-74
2023/03/13 12:29:36;;;;;;;34.03;5.15;;;;;;;;;;5117916;27;20035;-74
2023/03/13 12:32:07;;;;;;;32.85;4.53;;;;;;;;;;5114019;27;20046;-73
2023/03/13 12:34:52;;;;;;;28.33;6.18;;;;;;;;;;5109988;27;20035;-74
2023/03/13 12:37:27;;;;;;;32.25;4.35;;;;;;;;;;5117795;27;20092;-74
2023/03/13 12:40:18;;;;;;;30.02;5.07;;;;;;;;;;5108218;27;20046;-74
2023/03/13 12:43:04;;;;;;;38.13;5.53;;;;;;;;;;5107268;28;20043;-74
2023/03/13 12:45:31;;;;;;;34.75;6.22;;;;;;;;;;5111179;27;20043;-74
2023/03/13 12:47:57;;;;;;;37.67;6.22;;;;;;;;;;5100715;27;20073;-74
2023/03/13 12:50:23;;;;;;;32.30;5.95;;;;;;;;;;5109716;27;20042;-74
2023/03/13 12:53:03;;;;;;;29.10;5.03;;;;;;;;;;5110916;27;20065;-73
2023/03/13 12:55:36;;;;;;;35.50;6.00;;;;;;;;;;5110223;27;20051;-74
2023/03/13 12:58:08;;;;;;;28.40;5.57;;;;;;;;;;5116071;27;20038;-74
2023/03/13 13:00:35;;;;;;;34.83;4.97;;;;;;;;;;5114916;27;20046;-74
2023/03/13 13:03:05;;;;;;;32.40;5.28;;;;;;;;;;5115070;27;20087;-74
2023/03/13 13:05:32;;;;;;;39.85;6.03;;;;;;;;;;5129369;27;20370;-74
2023/03/13 13:07:58;;;;;;;37.22;5.65;;;;;;;;;;5122188;27;20047;-74
2023/03/13 13:10:26;;;;;;;30.48;5.22;;;;;;;;;;5118934;27;20050;-74
2023/03/13 13:13:28;;;;;;;40.53;5.53;;;15.00;99.90;;;;;;5111687;27;20046;-74
2023/03/13 13:16:11;;;;;;;28.40;5.50;;;;;;;;;;5117684;27;20075;-74
2023/03/13 13:18:37;;;;;;;38.17;6.03;;;;;;;;;;5092176;27;20038;-73
2023/03/13 13:21:06;;;;;;;38.15;7.22;;;;;;;;;;5092643;28;20035;-73
2023/03/13 13:23:45;;;;;;;42.15;6.38;;;;;;;;;;5092960;27;20122;-73
2023/03/13 13:26:29;;;;;;;40.17;6.43;;;;;;;;;;5116288;27;20043;-73
2023/03/13 13:28:57;;;;;;;32.83;5.00;;;;;;;;;;5087549;27;20042;-73
2023/03/13 13:31:55;;;;;;;40.15;5.60;;;15.20;99.90;;;;;;5106980;28;20044;-73
2023/03/13 13:34:30;;;;;;;31.27;4.85;;;;;;;;;;5097872;27;20399;-68
2023/03/13 13:36:59;;;;;;;37.72;5.90;;;;;;;;;;5111544;28;20066;-67
2023/03/13 13:39:46;;;;;;;28.77;5.00;;;;;;;;;;5097861;27;20074;-67
2023/03/13 13:42:31;;;;;;;40.45;5.25;;;;;;;;;;5100944;28;20039;-68
2023/03/13 13:45:02;;;;;;;38.10;5.63;;;;;;;;;;5098227;27;20570;-67
2023/03/13 13:47:29;;;;;;;26.58;4.38;;;;;;;;;;5107314;28;20054;-68
2023/03/13 13:49:57;;;;;;;34.40;6.03;;;;;;;;;;5119630;27;20031;-68
2023/03/13 13:52:41;;;;;;;33.20;5.05;;;;;;;;;;5099319;27;20517;-67
2023/03/13 13:55:20;;;;;;;38.63;5.15;;;;;;;;;;5086714;27;20043;-68
2023/03/13 13:57:48;;;;;;;30.15;6.03;;;;;;;;;;5123293;27;20401;-68
2023/03/13 14:00:24;;;;;;;29.98;4.78;;;;;;;;;;5121659;27;20042;-67
2023/03/13 14:02:51;;;;;;;32.45;5.63;;;;;;;;;;5096747;28;20127;-67
2023/03/13 14:05:31;;;;;;;40.38;7.03;;;;;;;;;;5103185;27;20042;-67
2023/03/13 14:07:57;;;;;;;35.25;5.43;;;;;;;;;;5114795;27;20043;-68
2023/03/13 14:10:29;;;;;;;31.13;5.38;;;;;;;;;;5107301;27;20039;-68
2023/03/13 14:12:57;;;;;;;36.20;5.95;;;;;;;;;;5097674;27;20086;-68
2023/03/13 14:15:25;;;;;;;29.58;4.43;;;;;;;;;;5115251;27;20087;-67
2023/03/13 14:17:52;;;;;;;33.90;6.18;;;;;;;;;;5105312;28;20032;-67
2023/03/13 14:20:25;;;;;;;34.38;5.45;;;;;;;;;;5102181;27;20027;-68
2023/03/13 14:22:52;;;;;;;36.97;6.18;;;;;;;;;;5096317;27;20040;-67
2023/03/13 14:25:19;;;;;;;40.92;4.72;;;;;;;;;;5120485;27;20503;-68
2023/03/13 14:27:46;;;;;;;46.58;6.82;;;;;;;;;;5106099;28;20607;-68
2023/03/13 14:30:14;;;;;;;36.63;5.32;;;;;;;;;;5100704;27;20478;-68
2023/03/13 14:32:40;;;;;;;39.05;6.55;;;;;;;;;;5081349;27;20126;-67
2023/03/13 14:35:07;;;;;;;43.40;6.10;;;;;;;;;;5083790;27;20035;-67
2023/03/13 14:37:40;;;;;;;41.40;6.45;;;;;;;;;;5108050;28;20031;-67